sensor_id;sensor_type;location;lat;lon;timestamp;pressure;altitude;pressure_sealevel;temperature;humidity
39954;BME280;25631;51.516;-0.470;2022-09-09T00:01:40;100004.57;;;15.79;47.14
39954;BME280;25631;51.516;-0.470;2022-09-09T00:04:26;100003.42;;;15.51;47.20
39954;BME280;25631;51.516;-0.470;2022-09-09T00:07:06;100002.78;;;15.56;47.14
39954;BME280;25631;51.516;-0.470;2022-09-09T00:09:47;100002.12;;;15.77;47.07
39954;BME280;25631;51.516;-0.470;2022-09-09T00:12:32;99998.19;;;15.75;47.09
39954;BME280;25631;51.516;-0.470;2022-09-09T00:15:12;99997.87;;;15.76;47.07
39954;BME280;25631;51.516;-0.470;2022-09-09T00:17:55;99995.00;;;15.40;47.08
39954;BME280;25631;51.516;-0.470;2022-09-09T00:20:36;99991.95;;;15.62;47.10
39954;BME280;25631;51.516;-0.470;2022-09-09T00:23:19;99998.23;;;15.94;47.08
39954;BME280;25631;51.516;-0.470;2022-09-09T00:26:04;99994.06;;;15.54;47.09
39954;BME280;25631;51.516;-0.470;2022-09-09T00:28:48;99994.81;;;15.83;47.11
39954;BME280;25631;51.516;-0.470;2022-09-09T00:31:28;99993.94;;;15.81;47.22
39954;BME280;25631;51.516;-0.470;2022-09-09T00:34:11;99997.46;;;15.96;47.29
39954;BME280;25631;51.516;-0.470;2022-09-09T00:36:50;99994.38;;;15.73;47.32
39954;BME280;25631;51.516;-0.470;2022-09-09T00:39:32;99991.73;;;15.41;47.38
39954;BME280;25631;51.516;-0.470;2022-09-09T00:42:14;99994.65;;;15.18;47.42
39954;BME280;25631;51.516;-0.470;2022-09-09T00:44:58;99997.04;;;15.37;47.46
39954;BME280;25631;51.516;-0.470;2022-09-09T00:47:40;99998.24;;;15.19;47.48
39954;BME280;25631;51.516;-0.470;2022-09-09T00:50:34;99997.18;;;15.19;47.54
39954;BME280;25631;51.516;-0.470;2022-09-09T00:53:23;100001.20;;;15.24;47.54
39954;BME280;25631;51.516;-0.470;2022-09-09T00:56:12;99997.01;;;15.26;47.60
39954;BME280;25631;51.516;-0.470;2022-09-09T00:58:52;99995.35;;;15.23;47.65
39954;BME280;25631;51.516;-0.470;2022-09-09T01:01:36;99993.43;;;15.48;47.57
39954;BME280;25631;51.516;-0.470;2022-09-09T01:04:16;99992.16;;;15.66;47.63
39954;BME280;25631;51.516;-0.470;2022-09-09T01:07:02;99991.77;;;15.53;47.56
39954;BME280;25631;51.516;-0.470;2022-09-09T01:09:50;99991.65;;;15.77;47.47
39954;BME280;25631;51.516;-0.470;2022-09-09T01:12:35;99989.49;;;15.56;47.39
39954;BME280;25631;51.516;-0.470;2022-09-09T01:15:19;99987.85;;;15.67;47.40
39954;BME280;25631;51.516;-0.470;2022-09-09T01:18:02;99981.93;;;15.55;47.36
39954;BME280;25631;51.516;-0.470;2022-09-09T01:20:47;99980.46;;;15.57;47.28
39954;BME280;25631;51.516;-0.470;2022-09-09T01:23:38;99980.92;;;15.58;47.38
39954;BME280;25631;51.516;-0.470;2022-09-09T01:26:23;99977.39;;;15.40;47.47
39954;BME280;25631;51.516;-0.470;2022-09-09T01:29:01;99980.05;;;15.12;47.54
39954;BME280;25631;51.516;-0.470;2022-09-09T01:31:40;99981.71;;;15.56;47.58
39954;BME280;25631;51.516;-0.470;2022-09-09T01:34:16;99983.45;;;15.67;47.56
39954;BME280;25631;51.516;-0.470;2022-09-09T01:36:57;99984.52;;;15.52;47.62
39954;BME280;25631;51.516;-0.470;2022-09-09T01:39:38;99989.68;;;15.32;47.56
39954;BME280;25631;51.516;-0.470;2022-09-09T01:42:16;99990.47;;;15.46;47.51
39954;BME280;25631;51.516;-0.470;2022-09-09T01:44:52;99987.74;;;16.00;47.60
39954;BME280;25631;51.516;-0.470;2022-09-09T01:47:29;99985.48;;;15.21;47.53
39954;BME280;25631;51.516;-0.470;2022-09-09T01:50:07;99981.66;;;15.29;47.49
39954;BME280;25631;51.516;-0.470;2022-09-09T01:52:48;99985.19;;;15.76;47.43
39954;BME280;25631;51.516;-0.470;2022-09-09T01:55:30;99984.10;;;15.37;47.44
39954;BME280;25631;51.516;-0.470;2022-09-09T01:58:15;99986.57;;;15.44;47.28
39954;BME280;25631;51.516;-0.470;2022-09-09T02:01:02;99985.14;;;15.85;47.24
39954;BME280;25631;51.516;-0.470;2022-09-09T02:03:47;99981.32;;;15.63;47.18
39954;BME280;25631;51.516;-0.470;2022-09-09T02:06:29;99982.46;;;15.58;47.10
39954;BME280;25631;51.516;-0.470;2022-09-09T02:09:10;99983.32;;;15.47;47.10
39954;BME280;25631;51.516;-0.470;2022-09-09T02:11:52;99982.61;;;15.40;47.13
39954;BME280;25631;51.516;-0.470;2022-09-09T02:14:37;99980.38;;;15.90;47.08
39954;BME280;25631;51.516;-0.470;2022-09-09T02:17:19;99980.30;;;15.57;47.10
39954;BME280;25631;51.516;-0.470;2022-09-09T02:20:03;99985.35;;;16.05;47.10
39954;BME280;25631;51.516;-0.470;2022-09-09T02:22:43;99985.66;;;15.95;47.15
39954;BME280;25631;51.516;-0.470;2022-09-09T02:25:23;99982.56;;;15.63;47.14
39954;BME280;25631;51.516;-0.470;2022-09-09T02:28:02;99982.67;;;15.65;47.10
39954;BME280;25631;51.516;-0.470;2022-09-09T02:30:40;99983.99;;;15.53;47.21
39954;BME280;25631;51.516;-0.470;2022-09-09T02:33:19;99983.65;;;15.71;47.07
39954;BME280;25631;51.516;-0.470;2022-09-09T02:35:56;99984.73;;;15.09;47.05
39954;BME280;25631;51.516;-0.470;2022-09-09T02:38:37;99988.17;;;15.37;47.01
39954;BME280;25631;51.516;-0.470;2022-09-09T02:41:16;99990.33;;;15.74;46.99
39954;BME280;25631;51.516;-0.470;2022-09-09T02:43:54;99995.50;;;15.44;47.03
39954;BME280;25631;51.516;-0.470;2022-09-09T02:46:40;99995.93;;;15.41;47.08
39954;BME280;25631;51.516;-0.470;2022-09-09T02:49:27;99997.93;;;15.58;47.02
39954;BME280;25631;51.516;-0.470;2022-09-09T02:52:09;100004.74;;;15.48;47.10
39954;BME280;25631;51.516;-0.470;2022-09-09T02:54:50;100008.55;;;15.50;47.24
39954;BME280;25631;51.516;-0.470;2022-09-09T02:57:31;100006.25;;;15.50;47.14
39954;BME280;25631;51.516;-0.470;2022-09-09T03:00:11;100005.78;;;15.40;47.15
39954;BME280;25631;51.516;-0.470;2022-09-09T03:02:47;100007.69;;;15.39;47.26
39954;BME280;25631;51.516;-0.470;2022-09-09T03:05:24;100004.16;;;15.20;47.21
39954;BME280;25631;51.516;-0.470;2022-09-09T03:08:00;100006.27;;;15.04;47.32
39954;BME280;25631;51.516;-0.470;2022-09-09T03:10:37;100009.76;;;15.26;47.52
39954;BME280;25631;51.516;-0.470;2022-09-09T03:13:13;100007.49;;;15.04;47.57
39954;BME280;25631;51.516;-0.470;2022-09-09T03:15:49;100008.92;;;15.19;47.85
39954;BME280;25631;51.516;-0.470;2022-09-09T03:18:26;100008.45;;;15.25;47.91
39954;BME280;25631;51.516;-0.470;2022-09-09T03:21:02;100009.61;;;15.40;47.87
39954;BME280;25631;51.516;-0.470;2022-09-09T03:23:39;100010.80;;;15.26;47.87
39954;BME280;25631;51.516;-0.470;2022-09-09T03:26:15;100008.64;;;15.13;47.96
39954;BME280;25631;51.516;-0.470;2022-09-09T03:28:52;100015.54;;;15.11;47.87
39954;BME280;25631;51.516;-0.470;2022-09-09T03:31:28;100011.82;;;15.14;47.89
39954;BME280;25631;51.516;-0.470;2022-09-09T03:34:04;100014.61;;;15.29;47.77
39954;BME280;25631;51.516;-0.470;2022-09-09T03:36:41;100017.49;;;15.28;47.70
39954;BME280;25631;51.516;-0.470;2022-09-09T03:39:17;100018.26;;;15.12;47.72
39954;BME280;25631;51.516;-0.470;2022-09-09T03:41:54;100021.11;;;15.20;47.51
39954;BME280;25631;51.516;-0.470;2022-09-09T03:44:30;100026.16;;;15.18;47.49
39954;BME280;25631;51.516;-0.470;2022-09-09T03:47:06;100028.54;;;15.16;47.53
39954;BME280;25631;51.516;-0.470;2022-09-09T03:49:43;100030.73;;;15.01;47.60
39954;BME280;25631;51.516;-0.470;2022-09-09T03:52:19;100035.99;;;15.28;47.60
39954;BME280;25631;51.516;-0.470;2022-09-09T03:54:55;100041.42;;;15.25;47.65
39954;BME280;25631;51.516;-0.470;2022-09-09T03:57:32;100046.79;;;14.98;47.56
39954;BME280;25631;51.516;-0.470;2022-09-09T04:00:10;100047.85;;;15.19;47.58
39954;BME280;25631;51.516;-0.470;2022-09-09T04:02:46;100050.76;;;15.27;47.68
39954;BME280;25631;51.516;-0.470;2022-09-09T04:05:22;100052.68;;;15.01;47.61
39954;BME280;25631;51.516;-0.470;2022-09-09T04:07:59;100055.46;;;15.12;47.54
39954;BME280;25631;51.516;-0.470;2022-09-09T04:10:36;100059.46;;;15.50;47.47
39954;BME280;25631;51.516;-0.470;2022-09-09T04:13:13;100066.63;;;15.52;47.41
39954;BME280;25631;51.516;-0.470;2022-09-09T04:15:51;100071.00;;;15.18;47.46
39954;BME280;25631;51.516;-0.470;2022-09-09T04:18:28;100070.27;;;15.31;47.40
39954;BME280;25631;51.516;-0.470;2022-09-09T04:21:06;100071.10;;;15.28;47.47
39954;BME280;25631;51.516;-0.470;2022-09-09T04:23:42;100067.99;;;15.14;47.46
39954;BME280;25631;51.516;-0.470;2022-09-09T04:26:18;100068.49;;;15.23;47.42
39954;BME280;25631;51.516;-0.470;2022-09-09T04:28:55;100066.49;;;15.17;47.46
39954;BME280;25631;51.516;-0.470;2022-09-09T04:31:32;100065.17;;;15.45;47.41
39954;BME280;25631;51.516;-0.470;2022-09-09T04:34:08;100068.13;;;15.24;47.40
39954;BME280;25631;51.516;-0.470;2022-09-09T04:36:44;100068.53;;;15.28;47.38
39954;BME280;25631;51.516;-0.470;2022-09-09T04:39:21;100070.98;;;15.41;47.37
39954;BME280;25631;51.516;-0.470;2022-09-09T04:41:57;100073.19;;;15.14;47.36
39954;BME280;25631;51.516;-0.470;2022-09-09T04:44:34;100077.80;;;15.58;47.33
39954;BME280;25631;51.516;-0.470;2022-09-09T04:47:11;100080.27;;;15.39;47.29
39954;BME280;25631;51.516;-0.470;2022-09-09T04:49:47;100082.43;;;15.27;47.35
39954;BME280;25631;51.516;-0.470;2022-09-09T04:52:23;100086.53;;;15.31;47.29
39954;BME280;25631;51.516;-0.470;2022-09-09T04:55:00;100093.19;;;15.12;47.37
39954;BME280;25631;51.516;-0.470;2022-09-09T04:57:36;100093.73;;;15.15;47.36
39954;BME280;25631;51.516;-0.470;2022-09-09T05:00:14;100097.51;;;14.91;47.42
39954;BME280;25631;51.516;-0.470;2022-09-09T05:02:50;100101.25;;;15.27;47.52
39954;BME280;25631;51.516;-0.470;2022-09-09T05:05:26;100101.55;;;15.19;47.44
39954;BME280;25631;51.516;-0.470;2022-09-09T05:08:04;100104.83;;;15.28;47.48
39954;BME280;25631;51.516;-0.470;2022-09-09T05:10:41;100105.91;;;15.26;47.36
39954;BME280;25631;51.516;-0.470;2022-09-09T05:13:17;100109.00;;;15.05;47.20
39954;BME280;25631;51.516;-0.470;2022-09-09T05:15:54;100107.96;;;15.18;47.14
39954;BME280;25631;51.516;-0.470;2022-09-09T05:18:31;100111.76;;;15.10;47.11
39954;BME280;25631;51.516;-0.470;2022-09-09T05:21:07;100115.51;;;14.99;46.90
39954;BME280;25631;51.516;-0.470;2022-09-09T05:23:45;100118.01;;;15.09;46.91
39954;BME280;25631;51.516;-0.470;2022-09-09T05:26:22;100120.12;;;14.84;46.67
39954;BME280;25631;51.516;-0.470;2022-09-09T05:28:59;100125.25;;;15.26;46.66
39954;BME280;25631;51.516;-0.470;2022-09-09T05:31:35;100127.78;;;14.98;46.74
39954;BME280;25631;51.516;-0.470;2022-09-09T05:34:11;100127.34;;;14.85;46.71
39954;BME280;25631;51.516;-0.470;2022-09-09T05:36:48;100124.73;;;14.85;46.78
39954;BME280;25631;51.516;-0.470;2022-09-09T05:39:24;100127.17;;;14.89;46.88
39954;BME280;25631;51.516;-0.470;2022-09-09T05:42:00;100133.46;;;14.52;47.05
39954;BME280;25631;51.516;-0.470;2022-09-09T05:44:37;100136.65;;;14.87;47.15
39954;BME280;25631;51.516;-0.470;2022-09-09T05:47:13;100138.43;;;14.77;47.19
39954;BME280;25631;51.516;-0.470;2022-09-09T05:49:49;100142.73;;;14.71;47.12
39954;BME280;25631;51.516;-0.470;2022-09-09T05:52:25;100146.13;;;14.98;47.16
39954;BME280;25631;51.516;-0.470;2022-09-09T05:55:02;100143.17;;;15.01;47.10
39954;BME280;25631;51.516;-0.470;2022-09-09T05:57:39;100148.84;;;14.56;47.13
39954;BME280;25631;51.516;-0.470;2022-09-09T06:00:15;100153.47;;;14.66;47.02
39954;BME280;25631;51.516;-0.470;2022-09-09T06:02:52;100153.81;;;15.02;47.01
39954;BME280;25631;51.516;-0.470;2022-09-09T06:05:28;100159.39;;;14.90;47.07
39954;BME280;25631;51.516;-0.470;2022-09-09T06:08:05;100164.02;;;14.83;47.04
39954;BME280;25631;51.516;-0.470;2022-09-09T06:10:41;100164.08;;;14.85;47.31
39954;BME280;25631;51.516;-0.470;2022-09-09T06:13:18;100163.75;;;14.78;47.20
39954;BME280;25631;51.516;-0.470;2022-09-09T06:15:54;100170.67;;;14.96;47.23
39954;BME280;25631;51.516;-0.470;2022-09-09T06:18:31;100173.30;;;15.08;47.17
39954;BME280;25631;51.516;-0.470;2022-09-09T06:21:11;100177.08;;;15.04;47.11
39954;BME280;25631;51.516;-0.470;2022-09-09T06:23:48;100180.85;;;15.00;47.09
39954;BME280;25631;51.516;-0.470;2022-09-09T06:26:26;100183.16;;;14.90;47.04
39954;BME280;25631;51.516;-0.470;2022-09-09T06:29:04;100189.11;;;15.34;46.99
39954;BME280;25631;51.516;-0.470;2022-09-09T06:31:40;100187.23;;;15.20;46.91
39954;BME280;25631;51.516;-0.470;2022-09-09T06:34:16;100188.56;;;15.34;46.73
39954;BME280;25631;51.516;-0.470;2022-09-09T06:36:53;100192.15;;;14.90;46.66
39954;BME280;25631;51.516;-0.470;2022-09-09T06:39:29;100195.42;;;15.24;46.39
39954;BME280;25631;51.516;-0.470;2022-09-09T06:42:06;100195.49;;;14.82;46.34
39954;BME280;25631;51.516;-0.470;2022-09-09T06:44:42;100196.64;;;15.16;46.25
39954;BME280;25631;51.516;-0.470;2022-09-09T06:47:18;100198.73;;;14.93;46.35
39954;BME280;25631;51.516;-0.470;2022-09-09T06:49:55;100202.91;;;15.00;46.48
39954;BME280;25631;51.516;-0.470;2022-09-09T06:52:31;100206.88;;;15.25;46.32
39954;BME280;25631;51.516;-0.470;2022-09-09T06:55:08;100208.52;;;15.22;46.27
39954;BME280;25631;51.516;-0.470;2022-09-09T06:57:44;100215.51;;;14.65;46.31
39954;BME280;25631;51.516;-0.470;2022-09-09T07:00:20;100216.65;;;14.69;46.23
39954;BME280;25631;51.516;-0.470;2022-09-09T07:02:57;100218.03;;;14.91;46.24
39954;BME280;25631;51.516;-0.470;2022-09-09T07:05:33;100220.59;;;14.85;46.27
39954;BME280;25631;51.516;-0.470;2022-09-09T07:08:10;100218.33;;;14.79;46.36
39954;BME280;25631;51.516;-0.470;2022-09-09T07:10:46;100219.86;;;15.09;46.17
39954;BME280;25631;51.516;-0.470;2022-09-09T07:13:24;100221.69;;;15.24;45.95
39954;BME280;25631;51.516;-0.470;2022-09-09T07:16:04;100222.84;;;15.06;45.56
39954;BME280;25631;51.516;-0.470;2022-09-09T07:18:40;100224.92;;;15.03;45.62
39954;BME280;25631;51.516;-0.470;2022-09-09T07:21:18;100225.89;;;15.28;45.79
39954;BME280;25631;51.516;-0.470;2022-09-09T07:23:55;100230.65;;;15.25;45.73
39954;BME280;25631;51.516;-0.470;2022-09-09T07:26:32;100229.81;;;15.07;45.76
39954;BME280;25631;51.516;-0.470;2022-09-09T07:29:08;100234.23;;;15.46;45.56
39954;BME280;25631;51.516;-0.470;2022-09-09T07:31:44;100238.16;;;15.35;45.36
39954;BME280;25631;51.516;-0.470;2022-09-09T07:34:21;100244.05;;;15.29;45.35
39954;BME280;25631;51.516;-0.470;2022-09-09T07:36:57;100247.12;;;15.28;45.40
39954;BME280;25631;51.516;-0.470;2022-09-09T07:39:33;100253.29;;;15.45;45.46
39954;BME280;25631;51.516;-0.470;2022-09-09T07:42:10;100254.18;;;15.55;45.50
39954;BME280;25631;51.516;-0.470;2022-09-09T07:44:46;100257.82;;;15.23;45.43
39954;BME280;25631;51.516;-0.470;2022-09-09T07:47:23;100260.43;;;15.39;45.40
39954;BME280;25631;51.516;-0.470;2022-09-09T07:49:59;100262.49;;;15.00;45.55
39954;BME280;25631;51.516;-0.470;2022-09-09T07:52:35;100258.94;;;15.33;45.84
39954;BME280;25631;51.516;-0.470;2022-09-09T07:55:12;100261.20;;;15.11;45.76
39954;BME280;25631;51.516;-0.470;2022-09-09T07:57:48;100267.86;;;15.39;45.87
39954;BME280;25631;51.516;-0.470;2022-09-09T08:00:25;100267.32;;;15.13;45.86
39954;BME280;25631;51.516;-0.470;2022-09-09T08:03:01;100268.58;;;15.24;45.84
39954;BME280;25631;51.516;-0.470;2022-09-09T08:05:37;100275.65;;;15.06;46.04
39954;BME280;25631;51.516;-0.470;2022-09-09T08:08:14;100278.81;;;15.12;45.91
39954;BME280;25631;51.516;-0.470;2022-09-09T08:10:50;100286.60;;;15.19;45.74
39954;BME280;25631;51.516;-0.470;2022-09-09T08:13:27;100285.41;;;15.41;45.56
39954;BME280;25631;51.516;-0.470;2022-09-09T08:16:05;100291.65;;;15.25;45.54
39954;BME280;25631;51.516;-0.470;2022-09-09T08:18:42;100294.93;;;15.21;45.75
39954;BME280;25631;51.516;-0.470;2022-09-09T08:21:20;100298.83;;;15.47;45.53
39954;BME280;25631;51.516;-0.470;2022-09-09T08:24:00;100311.19;;;15.10;45.52
39954;BME280;25631;51.516;-0.470;2022-09-09T08:26:38;100317.26;;;15.46;45.50
39954;BME280;25631;51.516;-0.470;2022-09-09T08:29:16;100315.89;;;15.29;45.74
39954;BME280;25631;51.516;-0.470;2022-09-09T08:31:54;100315.08;;;15.59;45.66
39954;BME280;25631;51.516;-0.470;2022-09-09T08:34:31;100319.38;;;15.14;45.79
39954;BME280;25631;51.516;-0.470;2022-09-09T08:37:07;100323.10;;;15.29;45.96
39954;BME280;25631;51.516;-0.470;2022-09-09T08:39:43;100324.17;;;14.97;46.18
39954;BME280;25631;51.516;-0.470;2022-09-09T08:42:29;100322.74;;;15.33;46.07
39954;BME280;25631;51.516;-0.470;2022-09-09T08:45:25;100330.48;;;15.43;45.78
39954;BME280;25631;51.516;-0.470;2022-09-09T08:48:11;100334.07;;;15.20;45.89
39954;BME280;25631;51.516;-0.470;2022-09-09T08:50:52;100332.54;;;15.65;45.94
39954;BME280;25631;51.516;-0.470;2022-09-09T08:53:36;100329.85;;;15.69;45.69
39954;BME280;25631;51.516;-0.470;2022-09-09T08:56:18;100333.07;;;15.91;45.65
39954;BME280;25631;51.516;-0.470;2022-09-09T08:59:00;100334.21;;;15.56;45.45
39954;BME280;25631;51.516;-0.470;2022-09-09T09:01:43;100337.61;;;15.62;45.54
39954;BME280;25631;51.516;-0.470;2022-09-09T09:04:33;100340.81;;;15.36;45.48
39954;BME280;25631;51.516;-0.470;2022-09-09T09:07:21;100344.65;;;15.73;45.29
39954;BME280;25631;51.516;-0.470;2022-09-09T09:10:03;100347.79;;;15.52;45.18
39954;BME280;25631;51.516;-0.470;2022-09-09T09:12:44;100353.52;;;15.58;45.13
39954;BME280;25631;51.516;-0.470;2022-09-09T09:15:25;100356.52;;;15.81;45.18
39954;BME280;25631;51.516;-0.470;2022-09-09T09:18:03;100360.80;;;15.81;45.21
39954;BME280;25631;51.516;-0.470;2022-09-09T09:20:46;100362.99;;;15.91;45.40
39954;BME280;25631;51.516;-0.470;2022-09-09T09:23:31;100369.83;;;15.97;45.02
39954;BME280;25631;51.516;-0.470;2022-09-09T09:26:12;100373.16;;;16.29;44.96
39954;BME280;25631;51.516;-0.470;2022-09-09T09:28:48;100373.32;;;15.95;44.80
39954;BME280;25631;51.516;-0.470;2022-09-09T09:31:24;100375.51;;;16.12;44.70
39954;BME280;25631;51.516;-0.470;2022-09-09T09:34:01;100378.65;;;16.21;44.66
39954;BME280;25631;51.516;-0.470;2022-09-09T09:36:41;100381.12;;;16.37;44.66
39954;BME280;25631;51.516;-0.470;2022-09-09T09:39:23;100384.55;;;16.36;44.70
39954;BME280;25631;51.516;-0.470;2022-09-09T09:42:09;100386.51;;;16.33;44.44
39954;BME280;25631;51.516;-0.470;2022-09-09T09:44:46;100394.43;;;16.16;44.50
39954;BME280;25631;51.516;-0.470;2022-09-09T09:47:23;100399.10;;;16.34;44.32
39954;BME280;25631;51.516;-0.470;2022-09-09T09:50:00;100401.14;;;16.60;44.07
39954;BME280;25631;51.516;-0.470;2022-09-09T09:52:36;100404.10;;;16.62;44.09
39954;BME280;25631;51.516;-0.470;2022-09-09T09:55:14;100409.39;;;16.36;44.11
39954;BME280;25631;51.516;-0.470;2022-09-09T09:57:51;100410.31;;;16.44;44.26
39954;BME280;25631;51.516;-0.470;2022-09-09T10:00:28;100412.33;;;16.30;44.31
39954;BME280;25631;51.516;-0.470;2022-09-09T10:03:22;100417.10;;;16.39;44.28
39954;BME280;25631;51.516;-0.470;2022-09-09T10:05:59;100424.63;;;16.65;43.97
39954;BME280;25631;51.516;-0.470;2022-09-09T10:08:45;100420.18;;;16.22;44.05
39954;BME280;25631;51.516;-0.470;2022-09-09T10:11:30;100418.55;;;16.46;44.32
39954;BME280;25631;51.516;-0.470;2022-09-09T10:14:20;100417.47;;;16.31;44.56
39954;BME280;25631;51.516;-0.470;2022-09-09T10:17:08;100417.78;;;16.33;44.65
39954;BME280;25631;51.516;-0.470;2022-09-09T10:19:58;100420.89;;;16.27;44.55
39954;BME280;25631;51.516;-0.470;2022-09-09T10:22:45;100425.78;;;16.35;44.77
39954;BME280;25631;51.516;-0.470;2022-09-09T10:25:30;100429.12;;;16.31;44.70
39954;BME280;25631;51.516;-0.470;2022-09-09T10:28:25;100431.56;;;16.15;44.72
39954;BME280;25631;51.516;-0.470;2022-09-09T10:31:15;100432.11;;;16.10;44.56
39954;BME280;25631;51.516;-0.470;2022-09-09T10:34:02;100434.80;;;16.17;44.49
39954;BME280;25631;51.516;-0.470;2022-09-09T10:36:47;100438.37;;;16.47;44.45
39954;BME280;25631;51.516;-0.470;2022-09-09T10:39:33;100441.20;;;16.38;44.49
39954;BME280;25631;51.516;-0.470;2022-09-09T10:42:14;100443.38;;;16.52;44.34
39954;BME280;25631;51.516;-0.470;2022-09-09T10:45:00;100442.72;;;16.63;44.17
39954;BME280;25631;51.516;-0.470;2022-09-09T10:47:53;100446.36;;;16.47;44.39
39954;BME280;25631;51.516;-0.470;2022-09-09T10:50:42;100444.39;;;16.69;44.54
39954;BME280;25631;51.516;-0.470;2022-09-09T10:53:32;100445.30;;;16.55;43.96
39954;BME280;25631;51.516;-0.470;2022-09-09T10:56:14;100446.96;;;16.82;43.73
39954;BME280;25631;51.516;-0.470;2022-09-09T10:58:59;100446.42;;;16.82;43.55
39954;BME280;25631;51.516;-0.470;2022-09-09T11:01:41;100441.35;;;16.89;43.29
39954;BME280;25631;51.516;-0.470;2022-09-09T11:04:23;100447.44;;;16.99;43.04
39954;BME280;25631;51.516;-0.470;2022-09-09T11:07:06;100443.60;;;16.93;42.78
39954;BME280;25631;51.516;-0.470;2022-09-09T11:09:49;100444.79;;;16.94;42.91
39954;BME280;25631;51.516;-0.470;2022-09-09T11:12:30;100445.05;;;16.91;42.55
39954;BME280;25631;51.516;-0.470;2022-09-09T11:15:16;100445.47;;;16.95;42.82
39954;BME280;25631;51.516;-0.470;2022-09-09T11:17:56;100447.05;;;16.93;42.98
39954;BME280;25631;51.516;-0.470;2022-09-09T11:20:34;100453.28;;;17.13;42.93
39954;BME280;25631;51.516;-0.470;2022-09-09T11:23:15;100458.43;;;17.21;42.10
39954;BME280;25631;51.516;-0.470;2022-09-09T11:25:55;100457.20;;;16.94;41.52
39954;BME280;25631;51.516;-0.470;2022-09-09T11:28:44;100459.15;;;17.18;42.06
39954;BME280;25631;51.516;-0.470;2022-09-09T11:31:41;100462.27;;;17.15;41.97
39954;BME280;25631;51.516;-0.470;2022-09-09T11:34:30;100457.34;;;16.74;41.98
39954;BME280;25631;51.516;-0.470;2022-09-09T11:37:29;100459.82;;;16.99;41.71
39954;BME280;25631;51.516;-0.470;2022-09-09T11:40:18;100461.80;;;17.11;42.31
39954;BME280;25631;51.516;-0.470;2022-09-09T11:43:05;100462.95;;;17.35;42.20
39954;BME280;25631;51.516;-0.470;2022-09-09T11:45:52;100462.97;;;17.48;41.53
39954;BME280;25631;51.516;-0.470;2022-09-09T11:48:32;100468.85;;;17.49;41.88
39954;BME280;25631;51.516;-0.470;2022-09-09T11:51:10;100474.18;;;17.72;42.34
39954;BME280;25631;51.516;-0.470;2022-09-09T11:53:49;100475.25;;;17.65;40.88
39954;BME280;25631;51.516;-0.470;2022-09-09T11:56:29;100471.49;;;17.98;41.30
39954;BME280;25631;51.516;-0.470;2022-09-09T11:59:19;100471.59;;;18.13;41.31
39954;BME280;25631;51.516;-0.470;2022-09-09T12:01:57;100472.60;;;18.37;39.67
39954;BME280;25631;51.516;-0.470;2022-09-09T12:04:37;100472.78;;;18.36;39.18
39954;BME280;25631;51.516;-0.470;2022-09-09T12:07:30;100471.58;;;18.37;38.66
39954;BME280;25631;51.516;-0.470;2022-09-09T12:10:22;100468.92;;;18.50;38.82
39954;BME280;25631;51.516;-0.470;2022-09-09T12:13:09;100472.50;;;18.31;38.88
39954;BME280;25631;51.516;-0.470;2022-09-09T12:15:53;100473.09;;;18.68;38.79
39954;BME280;25631;51.516;-0.470;2022-09-09T12:18:33;100478.32;;;18.49;38.45
39954;BME280;25631;51.516;-0.470;2022-09-09T12:21:17;100473.99;;;18.57;37.71
39954;BME280;25631;51.516;-0.470;2022-09-09T12:23:59;100473.52;;;18.27;37.23
39954;BME280;25631;51.516;-0.470;2022-09-09T12:26:41;100475.44;;;18.23;38.32
39954;BME280;25631;51.516;-0.470;2022-09-09T12:29:27;100474.87;;;18.12;37.87
39954;BME280;25631;51.516;-0.470;2022-09-09T12:32:09;100474.84;;;17.96;37.74
39954;BME280;25631;51.516;-0.470;2022-09-09T12:34:48;100474.38;;;18.13;38.10
39954;BME280;25631;51.516;-0.470;2022-09-09T12:37:31;100472.34;;;18.40;38.44
39954;BME280;25631;51.516;-0.470;2022-09-09T12:40:21;100469.31;;;18.54;37.92
39954;BME280;25631;51.516;-0.470;2022-09-09T12:42:59;100477.87;;;18.65;37.38
39954;BME280;25631;51.516;-0.470;2022-09-09T12:45:35;100479.06;;;18.29;37.23
39954;BME280;25631;51.516;-0.470;2022-09-09T12:48:18;100474.33;;;18.61;36.86
39954;BME280;25631;51.516;-0.470;2022-09-09T12:50:56;100468.80;;;18.74;37.07
39954;BME280;25631;51.516;-0.470;2022-09-09T12:53:34;100467.80;;;19.11;37.31
39954;BME280;25631;51.516;-0.470;2022-09-09T12:56:20;100468.33;;;19.07;37.38
39954;BME280;25631;51.516;-0.470;2022-09-09T12:58:58;100462.33;;;19.20;37.18
39954;BME280;25631;51.516;-0.470;2022-09-09T13:01:35;100463.90;;;19.35;37.35
39954;BME280;25631;51.516;-0.470;2022-09-09T13:04:20;100467.12;;;19.47;37.01
39954;BME280;25631;51.516;-0.470;2022-09-09T13:07:06;100469.28;;;19.48;36.62
39954;BME280;25631;51.516;-0.470;2022-09-09T13:09:42;100469.61;;;19.51;36.03
39954;BME280;25631;51.516;-0.470;2022-09-09T13:12:21;100477.28;;;19.80;35.92
39954;BME280;25631;51.516;-0.470;2022-09-09T13:14:58;100478.34;;;19.58;35.98
39954;BME280;25631;51.516;-0.470;2022-09-09T13:17:35;100472.77;;;19.73;36.24
39954;BME280;25631;51.516;-0.470;2022-09-09T13:20:17;100481.33;;;19.45;36.41
39954;BME280;25631;51.516;-0.470;2022-09-09T13:22:54;100476.95;;;19.60;36.31
39954;BME280;25631;51.516;-0.470;2022-09-09T13:25:31;100477.13;;;19.63;35.80
39954;BME280;25631;51.516;-0.470;2022-09-09T13:28:20;100473.07;;;19.85;36.43
39954;BME280;25631;51.516;-0.470;2022-09-09T13:30:59;100474.27;;;19.83;36.02
39954;BME280;25631;51.516;-0.470;2022-09-09T13:33:36;100473.65;;;19.98;35.54
39954;BME280;25631;51.516;-0.470;2022-09-09T13:36:13;100476.28;;;20.41;35.24
39954;BME280;25631;51.516;-0.470;2022-09-09T13:38:54;100470.73;;;20.19;34.75
39954;BME280;25631;51.516;-0.470;2022-09-09T13:41:33;100475.52;;;20.55;34.07
39954;BME280;25631;51.516;-0.470;2022-09-09T13:44:19;100480.37;;;20.35;34.20
39954;BME280;25631;51.516;-0.470;2022-09-09T13:47:01;100478.28;;;20.30;34.40
39954;BME280;25631;51.516;-0.470;2022-09-09T13:49:38;100477.83;;;19.81;34.69